createdAt,value
2022-08-17T00:01:26.208Z,17.75
2022-08-17T00:03:40.809Z,17.27
2022-08-17T00:05:49.578Z,17.42
2022-08-17T00:07:51.485Z,17.95
2022-08-17T00:09:53.631Z,17.30
2022-08-17T00:12:34.832Z,17.23
2022-08-17T00:14:19.031Z,17.48
2022-08-17T00:16:55.361Z,18.30
2022-08-17T00:19:07.478Z,17.40
2022-08-17T00:21:11.713Z,17.40
2022-08-17T00:23:16.626Z,19.13
2022-08-17T00:25:18.998Z,18.02
2022-08-17T00:27:20.733Z,18.33
2022-08-17T00:29:22.629Z,18.45
2022-08-17T00:31:25.158Z,17.95
2022-08-17T00:33:30.823Z,21.48
2022-08-17T00:35:33.308Z,22.00
2022-08-17T00:37:35.093Z,19.77
2022-08-17T00:39:36.870Z,19.95
2022-08-17T00:41:42.533Z,17.88
2022-08-17T00:43:50.320Z,16.73
2022-08-17T00:45:52.723Z,17.10
2022-08-17T00:47:54.711Z,17.42
2022-08-17T00:49:56.432Z,17.17
2022-08-17T00:52:11.779Z,16.80
2022-08-17T00:54:33.636Z,16.27
2022-08-17T00:56:49.265Z,16.10
2022-08-17T00:58:54.544Z,15.75
2022-08-17T01:00:56.600Z,17.55
2022-08-17T01:03:03.175Z,16.52
2022-08-17T01:05:08.056Z,17.40
2022-08-17T01:07:10.202Z,17.80
2022-08-17T01:09:13.454Z,17.58
2022-08-17T01:11:15.206Z,18.33
2022-08-17T01:13:17.706Z,17.80
2022-08-17T01:15:19.582Z,16.80
2022-08-17T01:17:21.441Z,16.75
2022-08-17T01:19:36.735Z,14.95
2022-08-17T01:21:43.840Z,13.20
2022-08-17T01:23:45.662Z,15.10
2022-08-17T01:25:51.329Z,15.57
2022-08-17T01:27:53.118Z,14.70
2022-08-17T01:30:00.407Z,14.73
2022-08-17T01:32:05.134Z,15.45
2022-08-17T01:34:10.501Z,15.55
2022-08-17T01:36:12.319Z,16.02
2022-08-17T01:38:14.477Z,16.15
2022-08-17T01:40:26.285Z,15.38
2022-08-17T01:42:43.075Z,15.10
2022-08-17T01:44:45.298Z,14.93
2022-08-17T01:46:47.390Z,16.00
2022-08-17T01:48:49.357Z,15.25
2022-08-17T01:50:52.325Z,14.60
2022-08-17T01:53:00.804Z,14.80
2022-08-17T01:55:03.068Z,15.07
2022-08-17T01:57:07.679Z,15.38
2022-08-17T01:59:10.357Z,15.05
2022-08-17T02:01:13.150Z,15.07
2022-08-17T02:03:15.100Z,15.90
2022-08-17T02:05:17.013Z,15.13
2022-08-17T02:07:18.872Z,14.93
2022-08-17T02:09:30.385Z,16.05
2022-08-17T02:11:34.583Z,15.05
2022-08-17T02:13:36.364Z,13.98
2022-08-17T02:15:38.975Z,15.90
2022-08-17T02:17:40.999Z,14.25
2022-08-17T02:19:43.459Z,15.47
2022-08-17T02:21:48.232Z,13.55
2022-08-17T02:23:50.446Z,13.82
2022-08-17T02:25:52.705Z,14.32
2022-08-17T02:27:54.591Z,14.38
2022-08-17T02:29:56.469Z,14.98
2022-08-17T02:31:58.265Z,15.13
2022-08-17T02:34:04.175Z,14.70
2022-08-17T02:36:08.182Z,14.40
2022-08-17T02:38:09.944Z,13.05
2022-08-17T02:40:12.139Z,13.65
2022-08-17T02:42:15.464Z,14.73
2022-08-17T02:44:39.608Z,13.90
2022-08-17T02:46:39.487Z,14.63
2022-08-17T02:48:41.270Z,14.13
2022-08-17T02:50:43.008Z,13.70
2022-08-17T02:52:53.257Z,13.73
2022-08-17T02:55:07.623Z,13.77
2022-08-17T02:57:12.210Z,12.35
2022-08-17T02:59:14.116Z,12.63
2022-08-17T03:01:16.258Z,12.13
2022-08-17T03:03:18.172Z,12.38
2022-08-17T03:05:22.571Z,12.80
2022-08-17T03:07:24.287Z,13.80
2022-08-17T03:09:26.013Z,14.00
2022-08-17T03:11:28.144Z,14.20
2022-08-17T03:13:30.090Z,13.00
2022-08-17T03:15:33.688Z,14.50
2022-08-17T03:19:37.402Z,13.30
2022-08-17T03:21:44.611Z,13.50
2022-08-17T03:23:46.494Z,13.00
2022-08-17T03:25:56.517Z,13.10
2022-08-17T03:27:58.614Z,12.10
2022-08-17T03:30:00.940Z,11.63
2022-08-17T03:32:11.752Z,13.95
2022-08-17T03:34:15.582Z,12.77
2022-08-17T03:36:17.511Z,13.00
2022-08-17T03:38:19.277Z,13.38
2022-08-17T03:40:55.287Z,15.15
2022-08-17T03:42:45.271Z,15.60
2022-08-17T03:44:51.930Z,15.38
2022-08-17T03:46:58.730Z,15.88
2022-08-17T03:49:00.763Z,14.57
2022-08-17T03:51:02.509Z,15.45
2022-08-17T03:53:08.140Z,12.93
2022-08-17T03:55:10.008Z,12.35
2022-08-17T03:57:12.610Z,12.90
2022-08-17T03:59:22.245Z,13.48
2022-08-17T04:01:25.324Z,15.35
2022-08-17T04:03:27.267Z,14.60
2022-08-17T04:05:29.016Z,13.80
2022-08-17T04:07:31.766Z,14.77
2022-08-17T04:09:33.907Z,15.93
2022-08-17T04:11:36.793Z,17.20
2022-08-17T04:13:38.657Z,23.88
2022-08-17T04:15:40.959Z,21.08
2022-08-17T04:17:42.735Z,19.35
2022-08-17T04:19:44.537Z,18.92
2022-08-17T04:21:46.309Z,17.10
2022-08-17T04:23:48.301Z,15.85
2022-08-17T04:25:50.983Z,15.82
2022-08-17T04:27:53.205Z,16.03
2022-08-17T04:29:56.114Z,17.67
2022-08-17T04:31:58.260Z,16.25
2022-08-17T04:34:00.094Z,17.02
2022-08-17T04:36:03.906Z,17.48
2022-08-17T04:38:07.390Z,16.55
2022-08-17T04:40:09.843Z,15.75
2022-08-17T04:42:11.657Z,16.17
2022-08-17T04:44:13.510Z,15.20
2022-08-17T04:46:36.162Z,15.55
2022-08-17T04:48:44.633Z,14.83
2022-08-17T04:50:48.892Z,15.02
2022-08-17T04:52:50.618Z,16.58
2022-08-17T04:54:52.329Z,17.05
2022-08-17T04:56:54.285Z,17.05
2022-08-17T04:58:59.638Z,17.20
2022-08-17T05:01:01.586Z,18.35
2022-08-17T05:03:04.656Z,18.30
2022-08-17T05:05:06.635Z,19.05
2022-08-17T05:07:08.548Z,17.38
2022-08-17T05:09:10.499Z,17.35
2022-08-17T05:11:12.339Z,19.55
2022-08-17T05:13:20.902Z,18.90
2022-08-17T05:15:22.716Z,17.75
2022-08-17T05:17:24.584Z,18.40
2022-08-17T05:19:26.393Z,19.23
2022-08-17T05:21:28.878Z,18.70
2022-08-17T05:23:37.843Z,18.10
2022-08-17T05:25:51.161Z,16.52
2022-08-17T05:27:54.822Z,17.83
2022-08-17T05:29:56.732Z,17.42
2022-08-17T05:31:58.478Z,18.40
2022-08-17T05:34:00.398Z,17.48
2022-08-17T05:36:04.500Z,17.20
2022-08-17T05:38:06.315Z,16.40
2022-08-17T05:40:08.956Z,15.60
2022-08-17T05:42:10.849Z,17.17
2022-08-17T05:44:12.581Z,15.93
2022-08-17T05:46:26.984Z,16.13
2022-08-17T05:48:39.023Z,15.93
2022-08-17T05:50:55.783Z,15.97
2022-08-17T05:53:07.671Z,16.80
2022-08-17T05:55:23.871Z,17.33
2022-08-17T05:57:53.740Z,17.45
2022-08-17T06:00:10.029Z,16.27
2022-08-17T06:02:36.557Z,16.38
2022-08-17T06:04:50.379Z,16.23
2022-08-17T06:06:59.535Z,15.93
2022-08-17T06:09:24.761Z,15.15
2022-08-17T06:11:47.217Z,16.35
2022-08-17T06:14:10.095Z,16.08
2022-08-17T06:16:33.152Z,17.08
2022-08-17T06:18:47.969Z,24.30
2022-08-17T06:20:54.578Z,17.20
2022-08-17T06:23:04.642Z,15.30
2022-08-17T06:25:15.595Z,16.33
2022-08-17T06:27:33.185Z,16.05
2022-08-17T06:29:41.914Z,14.65
2022-08-17T06:31:43.830Z,15.68
2022-08-17T06:33:45.717Z,15.18
2022-08-17T06:36:18.155Z,14.93
2022-08-17T06:38:38.368Z,14.35
2022-08-17T06:40:43.412Z,16.23
2022-08-17T06:43:14.382Z,14.70
2022-08-17T06:45:23.545Z,18.80
2022-08-17T06:47:37.192Z,15.27
2022-08-17T06:49:43.761Z,22.35
2022-08-17T06:52:12.183Z,13.90
2022-08-17T06:54:40.250Z,13.82
2022-08-17T06:56:53.032Z,12.90
2022-08-17T06:58:57.421Z,13.75
2022-08-17T07:01:16.942Z,14.30
2022-08-17T07:03:35.259Z,13.90
2022-08-17T07:05:48.334Z,14.82
2022-08-17T07:08:03.338Z,17.73
2022-08-17T07:10:08.754Z,14.93
2022-08-17T07:12:24.277Z,13.70
2022-08-17T07:14:54.228Z,14.27
2022-08-17T07:16:58.563Z,13.35
2022-08-17T07:19:00.452Z,13.80
2022-08-17T07:21:29.630Z,12.85
2022-08-17T07:24:26.315Z,13.68
2022-08-17T07:26:32.133Z,12.82
2022-08-17T07:28:35.479Z,12.10
2022-08-17T07:30:47.611Z,11.82
2022-08-17T07:32:57.888Z,12.68
2022-08-17T07:34:59.630Z,13.00
2022-08-17T07:37:05.431Z,13.32
2022-08-17T07:39:08.102Z,12.77
2022-08-17T07:41:11.415Z,14.15
2022-08-17T07:43:23.578Z,12.73
2022-08-17T07:45:25.926Z,13.45
2022-08-17T07:47:27.702Z,12.98
2022-08-17T07:49:32.191Z,11.93
2022-08-17T07:51:36.046Z,13.20
2022-08-17T07:53:37.778Z,12.73
2022-08-17T07:55:39.511Z,13.15
2022-08-17T07:57:41.414Z,13.60
2022-08-17T08:00:04.184Z,13.07
2022-08-17T08:02:31.690Z,13.10
2022-08-17T08:04:59.323Z,12.93
2022-08-17T08:07:02.304Z,14.35
2022-08-17T08:09:04.104Z,13.98
2022-08-17T08:11:13.082Z,14.43
2022-08-17T08:13:23.306Z,16.00
2022-08-17T08:15:35.291Z,15.32
2022-08-17T08:17:52.255Z,15.85
2022-08-17T08:19:54.261Z,17.25
2022-08-17T08:22:06.095Z,16.15
2022-08-17T08:24:33.029Z,15.75
2022-08-17T08:26:40.906Z,16.10
2022-08-17T08:29:07.451Z,16.63
2022-08-17T08:31:17.980Z,16.20
2022-08-17T08:33:32.792Z,15.65
2022-08-17T08:35:46.830Z,16.17
2022-08-17T08:37:54.996Z,15.40
2022-08-17T08:40:11.229Z,16.63
2022-08-17T08:42:33.309Z,17.13
2022-08-17T08:44:59.958Z,16.20
2022-08-17T08:47:15.453Z,16.20
2022-08-17T08:49:59.521Z,16.52
2022-08-17T08:52:00.181Z,16.38
2022-08-17T08:54:17.019Z,16.30
2022-08-17T08:56:37.420Z,16.60
2022-08-17T08:58:50.290Z,16.17
2022-08-17T09:00:56.646Z,15.00
2022-08-17T09:03:42.540Z,16.05
2022-08-17T09:06:37.424Z,16.90
2022-08-17T09:08:59.235Z,15.85
2022-08-17T09:11:13.757Z,15.45
2022-08-17T09:13:24.405Z,15.07
2022-08-17T09:15:34.752Z,15.35
2022-08-17T09:17:55.677Z,14.35
2022-08-17T09:20:28.216Z,14.57
2022-08-17T09:22:42.574Z,13.02
2022-08-17T09:24:51.603Z,13.77
2022-08-17T09:27:04.549Z,14.35
2022-08-17T09:29:11.277Z,13.32
2022-08-17T09:31:20.508Z,12.70
2022-08-17T09:33:26.054Z,14.15
2022-08-17T09:35:37.351Z,14.90
2022-08-17T09:38:06.249Z,13.88
2022-08-17T09:40:17.536Z,14.88
2022-08-17T09:42:31.567Z,13.68
2022-08-17T09:44:41.402Z,14.13
2022-08-17T09:46:53.082Z,14.18
2022-08-17T09:49:06.025Z,14.55
2022-08-17T09:51:18.244Z,14.65
2022-08-17T09:53:20.098Z,13.85
2022-08-17T09:55:26.571Z,14.25
2022-08-17T09:57:34.339Z,13.77
2022-08-17T09:59:48.114Z,13.40
2022-08-17T10:02:13.723Z,11.95
2022-08-17T10:04:52.703Z,10.98
2022-08-17T10:07:21.910Z,10.65
2022-08-17T10:09:48.709Z,10.55
2022-08-17T10:11:57.508Z,11.82
2022-08-17T10:14:36.406Z,12.00
2022-08-17T10:17:03.582Z,11.82
2022-08-17T10:19:16.056Z,11.32
2022-08-17T10:21:19.170Z,9.88
2022-08-17T10:23:29.769Z,10.27
2022-08-17T10:25:53.618Z,10.25
2022-08-17T10:27:59.971Z,10.10
2022-08-17T10:30:04.463Z,9.85
2022-08-17T10:32:10.559Z,10.85
2022-08-17T10:34:41.880Z,10.18
2022-08-17T10:37:01.043Z,10.43
2022-08-17T10:39:24.744Z,9.63
2022-08-17T10:41:39.697Z,9.65
2022-08-17T10:44:37.539Z,9.55
2022-08-17T10:46:41.859Z,10.32
2022-08-17T10:48:44.117Z,9.43
2022-08-17T10:50:57.691Z,9.35
2022-08-17T10:55:17.721Z,9.80
2022-08-17T10:57:41.579Z,9.35
2022-08-17T11:02:26.645Z,10.27
2022-08-17T11:04:51.057Z,10.32
2022-08-17T11:07:25.818Z,73.55
2022-08-17T11:09:59.395Z,26.30
2022-08-17T11:12:32.285Z,17.83
2022-08-17T11:14:45.872Z,9.48
2022-08-17T11:19:24.953Z,9.30
2022-08-17T11:21:38.174Z,9.32
2022-08-17T11:24:13.306Z,10.10
2022-08-17T11:26:23.597Z,9.18
2022-08-17T11:28:29.234Z,9.63
2022-08-17T11:31:00.396Z,9.25
2022-08-17T11:33:34.240Z,10.05
2022-08-17T11:35:48.260Z,8.80
2022-08-17T11:38:13.872Z,9.43
2022-08-17T11:40:37.814Z,9.50
2022-08-17T11:42:49.468Z,9.15
2022-08-17T11:44:59.806Z,8.10
2022-08-17T11:47:18.041Z,8.80
2022-08-17T11:49:49.966Z,9.13
2022-08-17T11:52:01.138Z,8.85
2022-08-17T11:56:43.083Z,8.70
2022-08-17T11:58:45.386Z,9.13
2022-08-17T12:00:47.151Z,10.27
2022-08-17T12:03:27.359Z,9.63
2022-08-17T12:05:32.528Z,9.90
2022-08-17T12:07:45.156Z,9.40
2022-08-17T12:09:51.009Z,9.63
2022-08-17T12:12:13.133Z,9.35
2022-08-17T12:14:27.003Z,9.25
2022-08-17T12:16:42.483Z,10.20
2022-08-17T12:19:02.364Z,10.33
2022-08-17T12:21:07.100Z,10.10
2022-08-17T12:23:50.238Z,10.85
2022-08-17T12:25:57.729Z,10.02
2022-08-17T12:28:06.003Z,10.10
2022-08-17T12:30:15.417Z,9.60
2022-08-17T12:32:20.089Z,8.75
2022-08-17T12:34:34.043Z,8.43
2022-08-17T12:36:35.762Z,8.63
2022-08-17T12:38:38.356Z,9.52
2022-08-17T12:40:40.019Z,11.40
2022-08-17T12:42:41.716Z,11.82
2022-08-17T12:44:50.596Z,12.05
2022-08-17T12:46:54.706Z,13.88
2022-08-17T12:49:12.679Z,13.73
2022-08-17T12:51:14.635Z,15.43
2022-08-17T12:53:28.255Z,14.85
2022-08-17T12:55:36.135Z,14.57
2022-08-17T12:57:58.305Z,15.88
2022-08-17T13:00:13.859Z,17.77
2022-08-17T13:02:49.966Z,17.33
2022-08-17T13:04:51.761Z,18.08
2022-08-17T13:06:59.578Z,17.75
2022-08-17T13:09:15.478Z,18.13
2022-08-17T13:11:21.562Z,18.67
2022-08-17T13:13:26.689Z,18.92
2022-08-17T13:15:44.411Z,20.85
2022-08-17T13:18:17.983Z,17.95
2022-08-17T13:20:19.680Z,19.08
2022-08-17T13:22:26.643Z,17.77
2022-08-17T13:24:29.947Z,17.10
2022-08-17T13:26:48.348Z,17.10
2022-08-17T13:28:50.733Z,16.27
2022-08-17T13:30:52.704Z,14.45
2022-08-17T13:32:56.330Z,13.95
2022-08-17T13:35:15.428Z,13.55
2022-08-17T13:37:23.235Z,13.25
2022-08-17T13:39:25.274Z,12.75
2022-08-17T13:41:35.807Z,12.13
2022-08-17T13:43:47.844Z,12.55
2022-08-17T13:45:52.030Z,13.35
2022-08-17T13:48:18.823Z,13.10
2022-08-17T13:50:21.835Z,11.50
2022-08-17T13:52:34.892Z,11.98
2022-08-17T13:54:40.742Z,12.77
2022-08-17T13:56:53.912Z,10.35
2022-08-17T13:59:01.182Z,11.60
2022-08-17T14:01:34.994Z,11.55
2022-08-17T14:03:36.962Z,11.50
2022-08-17T14:05:39.368Z,11.32
2022-08-17T14:07:41.191Z,11.00
2022-08-17T14:09:55.455Z,11.20
2022-08-17T14:11:58.497Z,9.75
2022-08-17T14:14:00.195Z,9.57
2022-08-17T14:16:01.936Z,9.63
2022-08-17T14:18:03.855Z,9.70
2022-08-17T14:20:11.707Z,9.15
2022-08-17T14:22:25.700Z,9.27
2022-08-17T14:24:32.624Z,8.48
2022-08-17T14:26:34.474Z,9.02
2022-08-17T14:28:37.232Z,8.27
2022-08-17T14:30:44.670Z,8.25
2022-08-17T14:32:47.053Z,8.23
2022-08-17T14:34:49.073Z,7.30
2022-08-17T14:36:52.030Z,7.70
2022-08-17T14:38:53.743Z,6.82
2022-08-17T14:40:55.566Z,7.43
2022-08-17T14:42:57.610Z,7.05
2022-08-17T14:45:00.241Z,6.82
2022-08-17T14:47:01.901Z,7.57
2022-08-17T14:49:03.586Z,7.80
2022-08-17T14:51:05.556Z,7.00
2022-08-17T14:53:09.822Z,7.38
2022-08-17T14:55:11.516Z,7.22
2022-08-17T14:57:22.220Z,7.00
2022-08-17T14:59:27.610Z,6.95
2022-08-17T15:01:29.390Z,7.40
2022-08-17T15:03:31.167Z,6.93
2022-08-17T15:05:36.852Z,6.80
2022-08-17T15:07:38.541Z,6.72
2022-08-17T15:09:40.384Z,6.68
2022-08-17T15:11:42.663Z,6.40
2022-08-17T15:13:52.310Z,6.60
2022-08-17T15:15:54.949Z,6.32
2022-08-17T15:17:57.619Z,6.53
2022-08-17T15:19:59.591Z,6.65
2022-08-17T15:22:01.266Z,6.95
2022-08-17T15:24:05.174Z,6.35
2022-08-17T15:26:07.386Z,7.05
2022-08-17T15:28:09.162Z,6.55
2022-08-17T15:30:11.752Z,6.25
2022-08-17T15:32:33.333Z,6.28
2022-08-17T15:34:35.023Z,7.25
2022-08-17T15:36:36.905Z,6.25
2022-08-17T15:38:38.581Z,6.13
2022-08-17T15:40:44.564Z,6.90
2022-08-17T15:42:46.401Z,7.47
2022-08-17T15:44:49.058Z,6.88
2022-08-17T15:46:50.696Z,6.70
2022-08-17T15:48:57.106Z,6.25
2022-08-17T15:50:58.897Z,6.93
2022-08-17T15:53:01.587Z,6.72
2022-08-17T15:55:05.167Z,7.10
2022-08-17T15:57:06.903Z,6.75
2022-08-17T15:59:08.589Z,6.72
2022-08-17T16:01:14.324Z,7.28
2022-08-17T16:03:58.047Z,7.32
2022-08-17T16:05:40.712Z,7.03
2022-08-17T16:07:42.794Z,6.97
2022-08-17T16:09:45.075Z,7.15
2022-08-17T16:11:52.155Z,7.07
2022-08-17T16:13:57.202Z,6.82
2022-08-17T16:15:58.923Z,7.03
2022-08-17T16:18:00.643Z,7.55
2022-08-17T16:20:02.505Z,7.15
2022-08-17T16:22:09.192Z,6.80
2022-08-17T16:24:13.150Z,7.22
2022-08-17T16:26:16.078Z,6.72
2022-08-17T16:28:18.150Z,7.13
2022-08-17T16:30:23.348Z,6.30
2022-08-17T16:32:31.802Z,7.20
2022-08-17T16:34:34.771Z,6.25
2022-08-17T16:36:36.437Z,6.45
2022-08-17T16:38:38.207Z,6.53
2022-08-17T16:40:40.348Z,6.78
2022-08-17T16:42:42.248Z,6.97
2022-08-17T16:44:44.047Z,7.15
2022-08-17T16:46:47.240Z,6.82
2022-08-17T16:48:48.943Z,6.65
2022-08-17T16:51:03.056Z,6.25
2022-08-17T16:53:10.138Z,6.88
2022-08-17T16:55:13.444Z,7.15
2022-08-17T16:57:16.898Z,6.60
2022-08-17T17:01:33.529Z,6.90
2022-08-17T17:03:42.923Z,7.05
2022-08-17T17:06:14.757Z,7.18
2022-08-17T17:08:53.999Z,6.90
2022-08-17T17:10:57.351Z,7.07
2022-08-17T17:15:07.484Z,8.15
2022-08-17T17:19:45.859Z,9.15
2022-08-17T17:21:58.921Z,9.07
2022-08-17T17:24:07.904Z,8.40
2022-08-17T17:26:39.011Z,8.80
2022-08-17T17:29:05.475Z,8.90
2022-08-17T17:31:18.001Z,11.70
2022-08-17T17:33:24.841Z,10.73
2022-08-17T17:35:33.499Z,9.13
2022-08-17T17:37:37.790Z,8.70
2022-08-17T17:39:53.115Z,9.02
2022-08-17T17:42:00.395Z,10.68
2022-08-17T17:44:08.437Z,8.98
2022-08-17T17:46:28.085Z,8.52
2022-08-17T17:48:30.844Z,8.35
2022-08-17T17:50:38.093Z,9.73
2022-08-17T17:52:39.740Z,10.55
2022-08-17T17:55:03.169Z,10.52
2022-08-17T17:57:22.891Z,11.13
2022-08-17T17:59:29.750Z,11.15
2022-08-17T18:01:46.241Z,11.45
2022-08-17T18:04:02.301Z,11.93
2022-08-17T18:06:41.091Z,11.75
2022-08-17T18:09:18.079Z,12.07
2022-08-17T18:11:36.167Z,17.55
2022-08-17T18:14:20.227Z,19.77
2022-08-17T18:16:22.827Z,22.75
2022-08-17T18:18:31.377Z,20.60
2022-08-17T18:20:43.343Z,19.27
2022-08-17T18:22:54.869Z,20.17
2022-08-17T18:24:56.758Z,17.30
2022-08-17T18:27:01.194Z,16.55
2022-08-17T18:29:27.448Z,12.25
2022-08-17T18:31:29.183Z,11.45
2022-08-17T18:33:31.431Z,11.70
2022-08-17T18:35:33.140Z,11.82
2022-08-17T18:37:40.706Z,13.60
2022-08-17T18:39:42.818Z,12.45
2022-08-17T18:41:50.187Z,11.95
2022-08-17T18:44:02.479Z,13.20
2022-08-17T18:46:30.449Z,19.77
2022-08-17T18:48:35.595Z,18.23
2022-08-17T18:50:40.618Z,19.65
2022-08-17T18:52:42.633Z,17.65
2022-08-17T18:55:02.301Z,16.98
2022-08-17T18:57:05.956Z,16.95
2022-08-17T18:59:20.871Z,14.30
2022-08-17T19:01:41.982Z,12.98
2022-08-17T19:03:44.751Z,11.82
2022-08-17T19:05:51.063Z,13.35
2022-08-17T19:07:52.931Z,13.45
2022-08-17T19:10:12.774Z,17.98
2022-08-17T19:12:27.287Z,25.17
2022-08-17T19:14:30.964Z,24.25
2022-08-17T19:18:56.888Z,20.35
2022-08-17T19:21:05.937Z,17.63
2022-08-17T19:23:54.156Z,26.45
2022-08-17T19:26:00.320Z,20.13
2022-08-17T19:28:22.211Z,17.95
2022-08-17T19:30:24.589Z,25.58
2022-08-17T19:32:31.225Z,18.00
2022-08-17T19:34:35.615Z,15.93
2022-08-17T19:36:48.368Z,15.93
2022-08-17T19:39:02.053Z,15.13
2022-08-17T19:41:20.379Z,16.05
2022-08-17T19:43:59.412Z,16.55
2022-08-17T19:46:17.815Z,17.08
2022-08-17T19:48:40.992Z,15.75
2022-08-17T19:50:54.521Z,17.58
2022-08-17T19:53:14.555Z,17.20
2022-08-17T19:55:25.685Z,17.10
2022-08-17T19:57:36.458Z,17.67
2022-08-17T20:00:27.143Z,18.10
2022-08-17T20:02:50.187Z,17.40
2022-08-17T20:04:55.735Z,17.10
2022-08-17T20:07:02.628Z,16.48
2022-08-17T20:09:21.610Z,17.42
2022-08-17T20:11:41.709Z,16.05
2022-08-17T20:13:50.235Z,14.80
2022-08-17T20:15:52.110Z,14.60
2022-08-17T20:17:59.064Z,14.90
2022-08-17T20:20:24.016Z,14.93
2022-08-17T20:22:52.378Z,14.52
2022-08-17T20:25:01.743Z,16.15
2022-08-17T20:27:09.607Z,17.50
2022-08-17T20:29:14.434Z,33.83
2022-08-17T20:31:43.989Z,25.30
2022-08-17T20:33:45.886Z,22.92
2022-08-17T20:36:23.069Z,22.77
2022-08-17T20:38:47.485Z,20.58
2022-08-17T20:40:55.014Z,18.88
2022-08-17T20:42:59.426Z,18.33
2022-08-17T20:45:21.191Z,18.60
2022-08-17T20:47:29.087Z,17.38
2022-08-17T20:49:47.599Z,17.98
2022-08-17T20:52:07.160Z,17.73
2022-08-17T20:54:17.963Z,17.70
2022-08-17T20:56:44.285Z,17.73
2022-08-17T20:58:47.408Z,16.65
2022-08-17T21:00:50.978Z,17.58
2022-08-17T21:03:21.759Z,17.08
2022-08-17T21:05:37.472Z,16.88
2022-08-17T21:07:43.086Z,16.70
2022-08-17T21:09:45.549Z,17.00
2022-08-17T21:12:04.133Z,16.40
2022-08-17T21:14:29.409Z,17.02
2022-08-17T21:16:58.059Z,16.42
2022-08-17T21:19:26.222Z,16.75
2022-08-17T21:21:39.677Z,15.73
2022-08-17T21:24:21.954Z,15.65
2022-08-17T21:26:50.459Z,16.33
2022-08-17T21:29:30.268Z,16.50
2022-08-17T21:31:42.562Z,17.58
2022-08-17T21:34:20.711Z,17.95
2022-08-17T21:36:25.568Z,17.65
2022-08-17T21:38:40.487Z,19.02
2022-08-17T21:40:45.846Z,16.90
2022-08-17T21:42:56.180Z,18.13
2022-08-17T21:45:09.348Z,17.25
2022-08-17T21:47:23.675Z,16.73
2022-08-17T21:49:27.547Z,17.70
2022-08-17T21:51:30.714Z,18.33
2022-08-17T21:53:48.258Z,17.23
2022-08-17T21:55:51.697Z,16.83
2022-08-17T21:58:14.231Z,17.13
2022-08-17T22:00:24.380Z,16.52
2022-08-17T22:02:34.568Z,16.73
2022-08-17T22:04:39.667Z,16.08
2022-08-17T22:06:57.395Z,16.17
2022-08-17T22:09:04.065Z,16.10
2022-08-17T22:11:05.806Z,16.80
2022-08-17T22:13:16.832Z,16.10
2022-08-17T22:15:19.460Z,16.85
2022-08-17T22:17:30.805Z,15.65
2022-08-17T22:19:34.628Z,16.73
2022-08-17T22:21:36.407Z,16.27
2022-08-17T22:23:41.762Z,15.73
2022-08-17T22:26:03.819Z,17.55
2022-08-17T22:28:11.522Z,16.58
2022-08-17T22:30:34.310Z,17.17
2022-08-17T22:32:45.309Z,17.02
2022-08-17T22:35:28.714Z,17.25
2022-08-17T22:37:30.450Z,18.55
2022-08-17T22:39:35.182Z,19.48
2022-08-17T22:41:55.297Z,17.15
2022-08-17T22:44:00.382Z,18.48
2022-08-17T22:46:07.710Z,16.63
2022-08-17T22:48:10.087Z,17.50
2022-08-17T22:50:25.449Z,16.35
2022-08-17T22:52:39.497Z,17.15
2022-08-17T22:54:45.580Z,16.88
2022-08-17T22:56:53.401Z,17.55
2022-08-17T22:58:58.886Z,16.70
2022-08-17T23:01:26.339Z,19.00
2022-08-17T23:03:28.272Z,17.60
2022-08-17T23:05:30.388Z,16.98
2022-08-17T23:07:32.125Z,17.27
2022-08-17T23:09:34.489Z,16.40
2022-08-17T23:11:48.606Z,16.90
2022-08-17T23:13:55.457Z,16.60
2022-08-17T23:15:57.221Z,16.50
2022-08-17T23:18:01.174Z,16.73
2022-08-17T23:20:07.341Z,17.10
2022-08-17T23:22:10.660Z,16.67
2022-08-17T23:24:19.368Z,15.65
2022-08-17T23:26:21.785Z,16.98
2022-08-17T23:28:23.526Z,18.13
2022-08-17T23:30:25.787Z,16.05
2022-08-17T23:32:27.581Z,15.93
2022-08-17T23:34:29.299Z,16.38
2022-08-17T23:36:31.404Z,17.42
2022-08-17T23:38:33.235Z,16.50
2022-08-17T23:40:35.048Z,16.75
2022-08-17T23:42:39.842Z,17.33
2022-08-17T23:44:48.137Z,17.52
2022-08-17T23:46:51.637Z,18.52
2022-08-17T23:50:56.315Z,16.27
2022-08-17T23:52:58.131Z,16.20
2022-08-17T23:55:00.192Z,16.65
2022-08-17T23:57:03.341Z,16.27
2022-08-17T23:59:05.092Z,17.33
